Time;durP1;ratioP1;P1;durP2;ratioP2;P2;SDS_P1;SDS_P2;PMS_P1;PMS_P2;Temp;Humidity;BMP_temperature;BMP_pressure;BME280_temperature;BME280_humidity;BME280_pressure;Samples;Min_cycle;Max_cycle;Signal;HPM_P1;HPM_P2
2023/06/24 00:01:28;;;;;;;2.53;1.85;;;;;;;22.23;46.26;101554.59;4995619;28;20035;-58
2023/06/24 00:03:55;;;;;;;1.58;1.40;;;;;;;22.03;47.29;101555.28;4995572;28;20109;-57
2023/06/24 00:06:22;;;;;;;1.55;1.17;;;;;;;21.90;46.40;101551.13;4994230;28;20034;-58
2023/06/24 00:08:52;;;;;;;3.25;1.20;;;;;;;21.49;48.26;101552.78;4995398;28;20573;-58
2023/06/24 00:11:18;;;;;;;3.50;1.55;;;;;;;21.51;48.82;101554.16;4995420;28;20034;-57
2023/06/24 00:13:45;;;;;;;2.22;1.20;;;;;;;21.71;48.13;101549.91;4995373;28;20092;-58
2023/06/24 00:16:11;;;;;;;1.20;1.00;;;;;;;21.86;47.89;101544.56;4995740;28;20053;-55
2023/06/24 00:18:41;;;;;;;2.80;1.20;;;;;;;21.79;49.13;101543.97;4995392;28;20522;-59
2023/06/24 00:21:07;;;;;;;2.10;1.20;;;;;;;22.01;47.61;101538.38;4995388;28;20027;-56
2023/06/24 00:23:37;;;;;;;3.97;1.25;;;;;;;22.13;47.85;101539.81;4994803;28;20051;-60
2023/06/24 00:26:03;;;;;;;1.65;1.30;;;;;;;22.20;46.92;101539.56;5010210;28;20034;-56
2023/06/24 00:28:29;;;;;;;2.05;1.20;;;;;;;22.21;46.59;101534.94;4995112;28;20085;-55
2023/06/24 00:30:56;;;;;;;1.23;1.00;;;;;;;22.24;47.54;101535.22;4995141;28;20474;-55
2023/06/24 00:33:22;;;;;;;2.47;1.25;;;;;;;22.26;47.73;101538.50;4995097;28;20071;-55
2023/06/24 00:35:49;;;;;;;3.30;1.20;;;;;;;21.84;48.92;101544.84;4994989;28;20058;-54
2023/06/24 00:38:15;;;;;;;2.60;1.42;;;;;;;21.52;48.90;101535.91;4995651;28;20390;-55
2023/06/24 00:40:42;;;;;;;3.17;1.20;;;;;;;21.35;50.26;101536.88;4995266;28;20046;-50
2023/06/24 00:43:09;;;;;;;1.45;1.00;;;;;;;20.93;50.46;101536.78;4995054;28;20060;-54
2023/06/24 00:45:36;;;;;;;1.85;1.35;;;;;;;20.75;52.41;101539.84;4995161;28;20052;-52
2023/06/24 00:48:03;;;;;;;3.42;1.30;;;;;;;20.70;52.47;101531.63;4994531;28;20084;-51
2023/06/24 00:50:29;;;;;;;1.50;1.05;;;;;;;20.59;52.59;101533.44;4994415;28;20081;-51
2023/06/24 00:52:56;;;;;;;2.15;1.00;;;;;;;20.70;52.78;101527.03;4994649;28;20040;-49
2023/06/24 00:55:22;;;;;;;3.38;1.25;;;;;;;20.48;52.97;101523.53;5009820;28;20033;-52
2023/06/24 00:57:51;;;;;;;8.43;1.67;;;;;;;20.33;52.56;101532.31;4994483;28;20543;-53
2023/06/24 01:00:19;;;;;;;2.63;1.00;;;;;;;20.48;52.46;101523.53;4994723;28;20153;-49
2023/06/24 01:02:48;;;;;;;2.03;1.17;;;;;;;20.06;53.16;101539.59;4994804;28;20038;-53
2023/06/24 01:05:15;;;;;;;3.80;1.48;;;;;;;20.12;53.94;101542.13;4994696;28;20033;-53
2023/06/24 01:07:43;;;;;;;1.77;1.08;;;;;;;20.11;54.59;101545.09;4994433;28;20479;-53
2023/06/24 01:10:12;;;;;;;1.17;0.88;;;;;;;20.21;54.55;101543.31;4993763;28;20119;-52
2023/06/24 01:12:43;;;;;;;1.48;0.90;;;;;;;20.27;54.39;101539.59;4994553;28;20041;-53
2023/06/24 01:15:11;;;;;;;1.48;0.75;;;;;;;20.62;53.15;101540.28;4994413;28;20018;-54
2023/06/24 01:18:01;;;;;;;2.08;1.00;;;;;;;20.81;52.99;101542.38;4994229;28;20475;-53
2023/06/24 01:20:34;;;;;;;0.75;0.52;;;;;;;20.54;53.24;101545.09;4994411;28;20018;-54
2023/06/24 01:23:29;;;;;;;2.05;0.90;;;;;;;20.27;53.25;101553.19;4994155;28;20034;-54
2023/06/24 01:25:55;;;;;;;1.52;1.02;;;;;;;20.34;53.08;101550.28;4994528;28;20026;-54
2023/06/24 01:28:39;;;;;;;1.67;0.70;;;;;;;20.70;52.15;101547.97;4994086;28;20041;-54
2023/06/24 01:31:27;;;;;;;1.13;0.77;;;;;;;21.01;51.72;101549.09;4994085;28;20058;-53
2023/06/24 01:34:12;;;;;;;2.65;0.80;;;;;;;21.05;50.52;101555.66;4994194;28;20059;-53
2023/06/24 01:36:44;;;;;;;0.77;0.70;;;;;;;21.01;50.44;101555.34;4993975;28;20495;-55
2023/06/24 01:39:16;;;;;;;1.73;0.90;;;;;;;21.11;49.81;101548.38;4992442;28;20031;-54
2023/06/24 01:41:48;;;;;;;1.60;0.85;;;;;;;21.15;50.07;101563.09;4993697;28;20042;-53
2023/06/24 01:44:16;;;;;;;1.70;1.00;;;;;;;21.01;50.07;101555.34;4993830;28;20018;-52
2023/06/24 01:46:48;;;;;;;1.20;0.80;;;;;;;20.92;50.16;101551.44;4993877;28;20027;-53
2023/06/24 01:49:17;;;;;;;1.58;1.00;;;;;;;20.94;49.86;101553.94;5008928;28;20049;-54
2023/06/24 01:51:46;;;;;;;3.22;0.88;;;;;;;21.20;50.23;101553.06;4994203;28;20030;-53
2023/06/24 01:54:19;;;;;;;1.08;0.80;;;;;;;21.15;49.42;101554.91;4993990;28;20023;-54
2023/06/24 01:56:47;;;;;;;0.73;0.73;;;;;;;21.23;48.48;101554.47;4993871;28;20054;-53
2023/06/24 01:59:16;;;;;;;1.73;0.90;;;;;;;21.46;48.15;101561.47;4994010;28;20062;-53
2023/06/24 02:01:43;;;;;;;1.15;0.80;;;;;;;21.83;48.14;101551.38;4994045;28;20026;-53
2023/06/24 02:04:12;;;;;;;1.90;0.82;;;;;;;21.93;47.06;101552.50;4993825;28;20030;-54
2023/06/24 02:06:41;;;;;;;1.13;0.80;;;;;;;22.09;46.68;101548.75;4993608;28;20456;-53
2023/06/24 02:09:09;;;;;;;2.28;1.00;;;;;;;22.20;45.02;101557.84;4993689;28;20027;-55
2023/06/24 02:11:37;;;;;;;2.50;0.80;;;;;;;22.35;44.82;101556.00;4993721;28;20050;-53
2023/06/24 02:14:05;;;;;;;0.60;0.60;;;;;;;22.57;44.96;101563.16;4993338;28;20032;-53
2023/06/24 02:16:34;;;;;;;1.92;1.17;;;;;;;22.73;44.00;101561.28;4993498;28;20026;-54
2023/06/24 02:19:02;;;;;;;1.05;0.73;;;;;;;23.00;43.66;101558.38;4993573;28;20514;-54
2023/06/24 02:21:29;;;;;;;1.52;0.95;;;;;;;22.97;43.42;101558.91;5010501;28;20431;-54
2023/06/24 02:23:56;;;;;;;1.40;0.95;;;;;;;23.24;43.10;101558.63;4997573;28;20026;-54
2023/06/24 02:26:23;;;;;;;1.50;1.10;;;;;;;23.29;42.46;101559.47;4997486;28;20080;-54
2023/06/24 02:28:50;;;;;;;1.25;0.77;;;;;;;23.41;42.31;101557.25;4997563;28;20026;-54
2023/06/24 02:31:17;;;;;;;1.98;0.70;;;;;;;23.23;42.58;101563.28;4997547;28;20025;-53
2023/06/24 02:33:43;;;;;;;1.13;0.93;;;;;;;22.96;43.54;101563.53;4997330;28;20061;-54
2023/06/24 02:36:11;;;;;;;2.80;1.23;;;;;;;23.27;43.06;101552.63;4997431;28;20108;-53
2023/06/24 02:38:37;;;;;;;1.50;1.30;;;;;;;23.21;43.14;101556.44;4997578;28;20026;-53
2023/06/24 02:41:04;;;;;;;1.20;0.95;;;;;;;22.95;43.76;101563.81;4997026;28;20046;-53
2023/06/24 02:43:31;;;;;;;1.92;1.25;;;;;;;22.86;43.75;101560.75;5012162;28;20031;-54
2023/06/24 02:46:00;;;;;;;1.58;1.00;;;;;;;22.96;43.67;101555.34;4997092;28;20034;-55
2023/06/24 02:48:28;;;;;;;2.42;1.50;;;;;;;22.64;44.42;101552.81;4997187;28;20037;-55
2023/06/24 02:50:55;;;;;;;1.38;0.90;;;;;;;22.35;44.90;101553.25;4997037;28;20014;-55
2023/06/24 02:53:21;;;;;;;1.73;1.05;;;;;;;22.40;45.25;101556.00;4997065;28;20463;-52
2023/06/24 02:55:49;;;;;;;2.63;1.10;;;;;;;22.08;45.71;101555.31;4997047;28;20468;-53
2023/06/24 02:58:15;;;;;;;1.85;1.13;;;;;;;21.68;46.78;101564.91;4996910;28;20077;-54
2023/06/24 03:00:41;;;;;;;1.63;1.40;;;;;;;21.73;46.88;101561.38;4996909;28;20118;-54
2023/06/24 03:03:08;;;;;;;2.83;1.30;;;;;;;21.45;47.75;101560.66;4996894;28;20026;-53
2023/06/24 03:05:36;;;;;;;3.45;1.35;;;;;;;21.00;48.98;101561.88;5011749;28;20453;-54
2023/06/24 03:08:05;;;;;;;2.28;1.20;;;;;;;20.79;49.30;101565.47;4997020;28;20026;-54
2023/06/24 03:10:31;;;;;;;2.65;1.20;;;;;;;20.67;50.01;101565.63;4996707;28;20438;-54
2023/06/24 03:12:57;;;;;;;2.50;1.50;;;;;;;20.26;51.57;101564.28;4996717;28;20105;-54
2023/06/24 03:15:23;;;;;;;1.50;1.30;;;;;;;20.02;52.49;101575.41;4996869;28;20041;-53
2023/06/24 03:17:51;;;;;;;2.33;1.58;;;;;;;19.82;53.41;101571.56;4997055;28;20036;-54
2023/06/24 03:20:18;;;;;;;3.00;1.70;;;;;;;19.72;53.43;101583.13;4996907;28;20031;-54
2023/06/24 03:22:44;;;;;;;2.85;1.60;;;;;;;19.20;54.67;101576.03;4996650;28;20028;-53
2023/06/24 03:25:10;;;;;;;3.10;1.75;;;;;;;18.91;55.60;101580.66;4996723;28;20031;-54
2023/06/24 03:27:36;;;;;;;2.95;1.73;;;;;;;18.82;55.81;101579.44;4996479;28;20110;-52
2023/06/24 03:30:03;;;;;;;3.20;1.83;;;;;;;18.94;56.16;101573.94;4996426;28;20053;-54
2023/06/24 03:32:29;;;;;;;4.18;1.58;;;;;;;18.73;56.30;101589.84;4995790;28;20109;-53
2023/06/24 03:34:56;;;;;;;4.68;2.10;;;;;;;18.21;57.97;101594.41;4996527;28;20499;-53
2023/06/24 03:37:22;;;;;;;2.30;1.70;;;;;;;18.05;58.42;101592.47;4996279;28;20030;-55
2023/06/24 03:39:48;;;;;;;2.13;1.73;;;;;;;18.16;58.18;101592.44;4996160;28;20050;-53
2023/06/24 03:42:14;;;;;;;2.97;1.92;;;;;;;18.12;58.82;101593.97;4995982;28;20042;-53
2023/06/24 03:44:41;;;;;;;2.65;1.67;;;;;;;18.13;58.53;101598.31;4996593;28;20025;-54
2023/06/24 03:47:07;;;;;;;2.65;1.70;;;;;;;17.83;59.59;101597.66;4996367;28;20463;-54
2023/06/24 03:49:33;;;;;;;4.93;2.13;;;;;;;17.64;60.44;101602.31;4996009;28;20030;-53
2023/06/24 03:51:59;;;;;;;3.20;1.90;;;;;;;17.64;60.41;101603.13;4996014;28;20104;-53
2023/06/24 03:54:25;;;;;;;2.88;1.88;;;;;;;17.49;60.82;101599.22;4995970;28;20018;-53
2023/06/24 03:56:52;;;;;;;3.80;1.95;;;;;;;17.61;60.70;101611.75;4995940;28;20030;-53
2023/06/24 03:59:18;;;;;;;3.95;2.05;;;;;;;17.21;61.08;101611.53;4995871;28;20027;-54
2023/06/24 04:01:44;;;;;;;2.75;2.08;;;;;;;16.93;60.75;101612.13;4995779;28;20080;-53
2023/06/24 04:04:10;;;;;;;2.60;1.75;;;;;;;17.07;60.42;101607.38;4996051;28;20078;-53
2023/06/24 04:06:37;;;;;;;3.22;2.03;;;;;;;17.20;61.86;101609.06;4995724;28;20080;-53
2023/06/24 04:09:03;;;;;;;2.80;2.20;;;;;;;17.02;62.63;101609.94;4996116;28;20043;-53
2023/06/24 04:11:29;;;;;;;3.75;2.05;;;;;;;16.83;64.07;101606.47;4995604;28;20030;-53
2023/06/24 04:13:55;;;;;;;2.22;2.00;;;;;;;16.60;62.34;101613.41;4995897;28;20034;-54
2023/06/24 04:16:22;;;;;;;2.85;2.10;;;;;;;16.61;61.66;101609.63;4995913;28;20042;-54
2023/06/24 04:18:48;;;;;;;2.95;2.08;;;;;;;16.68;61.12;101609.53;4995898;28;20411;-54
2023/06/24 04:21:14;;;;;;;2.88;2.55;;;;;;;16.27;62.52;101615.66;4995486;28;20038;-52
2023/06/24 04:23:40;;;;;;;7.32;2.83;;;;;;;16.22;62.80;101610.94;4995706;28;20419;-53
2023/06/24 04:26:07;;;;;;;3.03;2.40;;;;;;;16.39;61.94;101621.13;4995353;28;20038;-54
2023/06/24 04:28:33;;;;;;;3.88;2.05;;;;;;;16.16;63.27;101619.94;4995350;28;20084;-54
2023/06/24 04:30:59;;;;;;;4.05;2.10;;;;;;;16.26;62.87;101617.50;5010457;28;20022;-53
2023/06/24 04:33:25;;;;;;;4.40;2.30;;;;;;;16.14;63.06;101613.91;5010319;28;20483;-54
2023/06/24 04:35:52;;;;;;;3.25;2.47;;;;;;;16.08;63.14;101618.34;4995152;28;20026;-53
2023/06/24 04:38:18;;;;;;;2.67;2.40;;;;;;;16.23;62.35;101619.84;4995171;28;20046;-54
2023/06/24 04:40:45;;;;;;;4.55;2.70;;;;;;;16.26;62.51;101617.50;4994838;28;20069;-54
2023/06/24 04:43:11;;;;;;;4.90;2.22;;;;;;;16.14;62.87;101613.91;4994675;28;20034;-54
2023/06/24 04:45:37;;;;;;;3.17;2.80;;;;;;;16.04;62.81;101622.53;4995075;28;20030;-54
2023/06/24 04:48:04;;;;;;;3.63;2.78;;;;;;;16.03;63.09;101628.16;4994951;28;20019;-55
2023/06/24 04:50:30;;;;;;;3.28;2.47;;;;;;;16.03;63.01;101631.69;4994887;28;20019;-55
2023/06/24 04:52:57;;;;;;;2.90;2.33;;;;;;;15.98;63.33;101620.72;4994793;28;20093;-54
2023/06/24 04:55:23;;;;;;;3.30;2.83;;;;;;;15.98;63.14;101625.28;4995141;28;20033;-55
2023/06/24 04:57:49;;;;;;;3.63;2.90;;;;;;;15.95;63.46;101623.06;4994580;28;20108;-54
2023/06/24 05:00:16;;;;;;;3.20;2.80;;;;;;;15.90;63.58;101621.00;4995037;28;20022;-54
2023/06/24 05:02:42;;;;;;;3.95;2.47;;;;;;;15.85;63.83;101623.56;4994708;28;20022;-54
2023/06/24 05:05:09;;;;;;;3.88;2.65;;;;;;;15.91;63.51;101616.44;4994599;28;20073;-53
2023/06/24 05:07:35;;;;;;;3.28;2.75;;;;;;;15.90;63.81;101612.91;4994577;28;20037;-55
2023/06/24 05:10:01;;;;;;;3.35;2.60;;;;;;;15.67;64.26;101624.34;4994576;28;20365;-54
2023/06/24 05:12:27;;;;;;;5.45;3.03;;;;;;;15.58;64.71;101621.03;4994536;28;20081;-55
2023/06/24 05:14:53;;;;;;;5.43;2.63;;;;;;;15.52;64.80;101621.09;4994753;28;20034;-55
2023/06/24 05:17:20;;;;;;;2.40;2.20;;;;;;;15.55;64.32;101613.41;4994497;28;20094;-55
2023/06/24 05:19:46;;;;;;;4.43;2.58;;;;;;;15.56;64.56;101617.75;4994520;28;20030;-55
2023/06/24 05:22:13;;;;;;;4.53;2.97;;;;;;;15.47;64.86;101608.25;4994274;28;20026;-55
2023/06/24 05:24:41;;;;;;;4.93;3.00;;;;;;;15.49;64.87;101614.28;4994324;28;20038;-56
2023/06/24 05:27:07;;;;;;;3.50;2.75;;;;;;;15.44;65.37;101626.78;4994287;28;20097;-56
2023/06/24 05:29:34;;;;;;;3.42;2.88;;;;;;;15.28;65.77;101617.34;4994730;28;20050;-56
2023/06/24 05:32:03;;;;;;;6.65;2.70;;;;;;;15.20;66.43;101622.97;4994161;28;20471;-58
2023/06/24 05:34:30;;;;;;;4.60;2.72;;;;;;;15.11;66.94;101624.31;4994216;28;20047;-55
2023/06/24 05:36:56;;;;;;;3.83;3.13;;;;;;;15.23;66.56;101619.88;5009467;28;20029;-55
2023/06/24 05:39:22;;;;;;;3.53;2.40;;;;;;;15.25;66.60;101615.91;4993987;28;20026;-54
2023/06/24 05:41:49;;;;;;;3.45;2.60;;;;;;;15.13;66.87;101617.63;4993805;28;20077;-55
2023/06/24 05:44:17;;;;;;;3.72;2.60;;;;;;;15.10;66.87;101617.22;4993973;28;20022;-55
2023/06/24 05:46:45;;;;;;;4.40;2.60;;;;;;;15.22;66.47;101620.91;4993902;28;20087;-56
2023/06/24 05:49:11;;;;;;;3.13;2.38;;;;;;;15.22;66.63;101626.31;4994612;28;20105;-55
2023/06/24 05:51:38;;;;;;;5.28;2.47;;;;;;;15.24;66.53;101621.50;4994294;28;20480;-55
2023/06/24 05:54:04;;;;;;;4.18;2.55;;;;;;;15.32;66.28;101613.16;4993997;28;20123;-55
2023/06/24 05:56:31;;;;;;;5.10;2.50;;;;;;;15.45;65.70;101613.06;4993689;28;20026;-55
2023/06/24 05:58:57;;;;;;;4.25;2.67;;;;;;;15.35;65.79;101612.72;4993804;28;20022;-56
2023/06/24 06:01:23;;;;;;;5.72;2.65;;;;;;;15.48;65.24;101615.31;4993759;28;20034;-56
2023/06/24 06:03:49;;;;;;;3.38;2.17;;;;;;;15.54;65.26;101613.59;4994006;28;20027;-55
2023/06/24 06:06:15;;;;;;;3.50;2.63;;;;;;;15.57;65.26;101607.78;4993639;28;20026;-55
2023/06/24 06:08:42;;;;;;;3.00;2.47;;;;;;;15.59;65.17;101613.78;4993729;28;20034;-55
2023/06/24 06:11:08;;;;;;;3.25;2.42;;;;;;;15.50;65.12;101613.22;4993632;28;20218;-56
2023/06/24 06:13:34;;;;;;;3.40;2.50;;;;;;;15.54;64.74;101613.59;4993665;28;20026;-55
2023/06/24 06:16:01;;;;;;;3.65;2.47;;;;;;;15.66;64.63;101619.16;4993648;28;20388;-55
2023/06/24 06:18:27;;;;;;;3.42;2.03;;;;;;;15.52;65.46;101611.13;4993676;28;20037;-55
2023/06/24 06:20:53;;;;;;;4.35;2.60;;;;;;;15.43;65.34;101612.44;4993606;28;20034;-56
2023/06/24 06:23:20;;;;;;;3.85;2.45;;;;;;;15.38;65.52;101608.75;4993784;28;20026;-55
2023/06/24 06:25:46;;;;;;;5.22;2.25;;;;;;;15.17;66.64;101604.56;4993429;28;20026;-55
2023/06/24 06:28:12;;;;;;;3.85;2.30;;;;;;;15.19;66.35;101599.75;4993551;28;20026;-56
2023/06/24 06:30:39;;;;;;;3.63;2.25;;;;;;;15.32;66.20;101596.97;4993873;28;20471;-56
2023/06/24 06:33:05;;;;;;;3.30;2.53;;;;;;;15.10;66.92;101595.66;4993452;28;20036;-56
2023/06/24 06:35:31;;;;;;;4.82;2.35;;;;;;;15.10;67.22;101590.28;4993539;28;20030;-56
2023/06/24 06:37:58;;;;;;;3.10;2.13;;;;;;;15.02;67.17;101588.69;4993737;28;20025;-56
2023/06/24 06:40:24;;;;;;;4.30;2.65;;;;;;;15.08;67.40;101597.75;4993468;28;20050;-56
2023/06/24 06:42:51;;;;;;;3.22;2.17;;;;;;;15.01;67.79;101608.59;4993307;28;20491;-55
2023/06/24 06:45:17;;;;;;;3.13;2.47;;;;;;;14.96;67.54;101606.53;4993365;28;20065;-56
2023/06/24 06:47:43;;;;;;;3.25;2.40;;;;;;;15.10;67.33;101590.28;4993332;28;20030;-55
2023/06/24 06:50:12;;;;;;;4.90;2.78;;;;;;;15.01;67.68;101592.41;4993310;28;20050;-56
2023/06/24 06:52:39;;;;;;;4.05;2.75;;;;;;;15.03;67.54;101593.84;4993314;28;20064;-56
2023/06/24 06:55:05;;;;;;;3.63;2.30;;;;;;;15.04;67.45;101587.41;4993507;28;20027;-55
2023/06/24 06:57:32;;;;;;;2.83;2.55;;;;;;;15.00;67.59;101588.91;4993243;28;20188;-56
2023/06/24 06:59:58;;;;;;;4.70;2.35;;;;;;;15.03;67.20;101579.53;4993240;28;20030;-56
2023/06/24 07:02:24;;;;;;;3.47;2.30;;;;;;;15.16;66.88;101579.47;4993822;28;20504;-55
2023/06/24 07:04:51;;;;;;;2.53;2.15;;;;;;;15.19;67.15;101567.41;4993153;28;20034;-56
2023/06/24 07:07:17;;;;;;;2.55;2.28;;;;;;;15.27;66.94;101569.84;4994525;28;20033;-55
2023/06/24 07:09:43;;;;;;;3.25;2.00;;;;;;;15.23;66.74;101569.44;4997145;28;20027;-56
2023/06/24 07:12:10;;;;;;;2.20;2.00;;;;;;;15.18;66.83;101565.75;4996738;28;20022;-56
2023/06/24 07:14:36;;;;;;;5.95;2.15;;;;;;;15.05;67.06;101555.91;4997041;28;20479;-56
2023/06/24 07:17:02;;;;;;;2.78;2.17;;;;;;;15.07;66.82;101547.59;4996751;28;20034;-56
2023/06/24 07:19:28;;;;;;;3.42;2.40;;;;;;;15.16;66.48;101555.19;4996996;28;20467;-56
2023/06/24 07:21:55;;;;;;;2.50;2.28;;;;;;;15.14;66.47;101549.19;4996519;28;20038;-56
2023/06/24 07:24:21;;;;;;;2.80;2.60;;;;;;;15.19;66.53;101552.03;4996448;28;20027;-56
2023/06/24 07:26:47;;;;;;;3.40;2.15;;;;;;;14.99;66.94;101557.59;4996531;28;20030;-56
2023/06/24 07:29:14;;;;;;;3.92;2.38;;;;;;;14.73;68.10;101552.38;4996349;28;20526;-56
2023/06/24 07:31:40;;;;;;;2.88;2.38;;;;;;;14.61;68.59;101560.31;4996374;28;20086;-56
2023/06/24 07:34:06;;;;;;;4.05;2.17;;;;;;;14.81;67.65;101562.88;4996284;28;20475;-56
2023/06/24 07:36:32;;;;;;;3.47;2.53;;;;;;;14.94;67.30;101564.69;4996292;28;20097;-56
2023/06/24 07:38:59;;;;;;;3.85;2.13;;;;;;;14.76;67.59;101560.81;4996301;28;20027;-56
2023/06/24 07:41:25;;;;;;;3.83;2.35;;;;;;;14.70;67.67;101558.16;4996152;28;20066;-56
2023/06/24 07:43:52;;;;;;;3.90;2.50;;;;;;;14.73;67.74;101555.88;4996090;28;20038;-56
2023/06/24 07:46:18;;;;;;;3.97;2.78;;;;;;;14.87;68.63;101553.91;4996342;28;20060;-56
2023/06/24 07:48:44;;;;;;;6.40;3.22;;;;;;;14.71;69.03;101551.72;4996226;28;20054;-56
2023/06/24 07:51:10;;;;;;;3.88;2.58;;;;;;;14.69;69.47;101548.44;4996005;28;20383;-56
2023/06/24 07:53:37;;;;;;;5.57;2.75;;;;;;;14.75;70.06;101542.19;4995985;28;20046;-56
2023/06/24 07:56:03;;;;;;;4.07;2.58;;;;;;;14.60;70.80;101550.53;4996087;28;20098;-56
2023/06/24 07:58:29;;;;;;;3.25;2.67;;;;;;;14.57;70.33;101540.22;4996156;28;20050;-54
2023/06/24 08:00:55;;;;;;;3.55;2.55;;;;;;;14.39;70.73;101540.91;4995975;28;20022;-56
2023/06/24 08:03:22;;;;;;;5.07;2.42;;;;;;;14.49;70.58;101541.31;4995920;28;20033;-55
2023/06/24 08:05:49;;;;;;;3.45;2.50;;;;;;;14.37;70.78;101542.13;4995719;28;20019;-56
2023/06/24 08:08:18;;;;;;;3.03;2.38;;;;;;;14.24;71.43;101530.38;4995837;28;20023;-55
2023/06/24 08:10:44;;;;;;;5.95;3.25;;;;;;;14.56;70.68;101535.06;4995694;28;20022;-55
2023/06/24 08:13:10;;;;;;;4.03;2.22;;;;;;;14.36;71.04;101527.84;4995561;28;20387;-56
2023/06/24 08:15:36;;;;;;;4.70;2.80;;;;;;;14.31;72.09;101538.44;4995725;28;20116;-55
2023/06/24 08:18:03;;;;;;;4.20;2.47;;;;;;;14.18;72.65;101533.13;4995589;28;20161;-54
2023/06/24 08:20:29;;;;;;;4.63;2.92;;;;;;;14.23;72.70;101527.91;4995531;28;20669;-55
2023/06/24 08:22:55;;;;;;;3.97;2.58;;;;;;;13.96;73.36;101533.38;4995645;28;20037;-55
2023/06/24 08:25:21;;;;;;;7.25;3.00;;;;;;;14.07;73.14;101536.47;4995666;28;20041;-56
2023/06/24 08:27:48;;;;;;;3.78;2.50;;;;;;;13.81;74.14;101542.72;4995686;28;20026;-55
2023/06/24 08:30:15;;;;;;;2.92;2.47;;;;;;;13.90;73.78;101531.53;4994885;28;20026;-56
2023/06/24 08:32:42;;;;;;;3.20;2.50;;;;;;;13.98;73.31;101533.16;4995290;28;20033;-55
2023/06/24 08:35:09;;;;;;;5.65;2.70;;;;;;;13.87;73.37;101531.94;4995473;28;20027;-55
2023/06/24 08:37:37;;;;;;;5.32;3.67;;;;;;;13.85;73.77;101531.34;4995130;28;20029;-56
2023/06/24 08:40:07;;;;;;;3.60;2.80;;;;;;;13.78;73.83;101535.91;4995037;28;20030;-56
2023/06/24 08:42:33;;;;;;;2.85;2.53;;;;;;;13.80;73.65;101524.94;4995009;28;20047;-55
2023/06/24 08:45:00;;;;;;;3.17;2.78;;;;;;;13.87;73.32;101531.94;4994899;28;20470;-56
2023/06/24 08:47:28;;;;;;;3.53;2.80;;;;;;;14.05;72.69;101535.84;4994974;28;20471;-56
2023/06/24 08:50:11;;;;;;;4.85;2.78;;;;;;;14.03;73.00;101535.22;4994992;28;20030;-56
2023/06/24 08:52:42;;;;;;;3.85;2.85;;;;;;;14.13;72.75;101538.31;4994897;28;20022;-55
2023/06/24 08:55:13;;;;;;;3.50;2.95;;;;;;;14.15;72.83;101538.91;4994990;28;20093;-56
2023/06/24 08:57:40;;;;;;;9.23;3.17;;;;;;;14.16;73.05;101535.19;4994911;28;20031;-56
2023/06/24 09:00:10;;;;;;;6.22;3.22;;;;;;;14.11;73.70;101526.94;4994723;28;20027;-56
2023/06/24 09:02:38;;;;;;;3.92;3.05;;;;;;;14.29;73.28;101521.69;4995025;28;20026;-56
2023/06/24 09:05:08;;;;;;;3.50;2.63;;;;;;;14.25;73.25;101523.97;4994560;28;20041;-56
2023/06/24 09:07:35;;;;;;;3.63;2.92;;;;;;;14.32;73.74;101528.47;4994625;28;20030;-56
2023/06/24 09:10:01;;;;;;;3.47;2.40;;;;;;;14.28;73.95;101517.34;4994621;28;20022;-56
2023/06/24 09:12:31;;;;;;;3.80;2.60;;;;;;;14.37;73.58;101524.09;4994541;28;20530;-56
2023/06/24 09:14:57;;;;;;;5.05;2.80;;;;;;;14.51;73.32;101514.13;4994517;28;20391;-56
2023/06/24 09:17:23;;;;;;;3.92;2.67;;;;;;;14.43;73.75;101508.97;4994248;28;20019;-55
2023/06/24 09:19:50;;;;;;;3.30;3.00;;;;;;;14.45;73.83;101518.50;4994437;28;20026;-55
2023/06/24 09:22:18;;;;;;;4.18;3.17;;;;;;;14.62;73.06;101516.16;4994430;28;20105;-54
2023/06/24 09:24:48;;;;;;;4.32;3.30;;;;;;;14.55;73.32;101517.22;4994262;28;20030;-55
2023/06/24 09:27:16;;;;;;;4.40;2.72;;;;;;;14.73;72.41;101520.03;4994376;28;20033;-54
2023/06/24 09:29:43;;;;;;;4.80;3.03;;;;;;;14.64;72.73;101516.75;4993903;28;20066;-55
2023/06/24 09:32:10;;;;;;;4.28;2.75;;;;;;;14.72;72.70;101513.00;4994569;28;20353;-55
2023/06/24 09:34:36;;;;;;;3.63;2.70;;;;;;;14.70;72.58;101510.50;4994327;28;20030;-55
2023/06/24 09:37:03;;;;;;;5.88;3.20;;;;;;;14.49;72.77;101513.50;4994535;28;20364;-55
2023/06/24 09:39:36;;;;;;;5.78;3.28;;;;;;;14.66;72.63;101508.47;4994130;28;20034;-55
2023/06/24 09:42:04;;;;;;;5.80;3.60;;;;;;;14.45;73.33;101509.59;4993971;28;20053;-55
2023/06/24 09:44:31;;;;;;;6.78;4.00;;;;;;;14.43;73.17;101509.78;4994045;28;20023;-56
2023/06/24 09:46:57;;;;;;;4.03;3.08;;;;;;;14.50;73.03;101516.00;4993971;28;20064;-56
2023/06/24 09:49:24;;;;;;;3.70;3.10;;;;;;;14.47;72.87;101513.75;4994098;28;20522;-55
2023/06/24 09:52:00;;;;;;;4.20;3.05;;;;;;;14.36;73.75;101514.38;4993866;28;20030;-56
2023/06/24 09:54:28;;;;;;;3.63;3.30;;;;;;;14.43;73.61;101503.56;4993959;28;20026;-56
2023/06/24 09:56:57;;;;;;;3.90;3.50;;;;;;;14.48;73.65;101506.47;4993929;28;20038;-55
2023/06/24 09:59:25;;;;;;;4.05;3.10;;;;;;;14.59;73.65;101508.50;4993945;28;20030;-55
2023/06/24 10:01:55;;;;;;;4.50;3.17;;;;;;;14.71;73.57;101506.78;4993793;28;20018;-56
2023/06/24 10:04:24;;;;;;;4.45;3.22;;;;;;;14.63;73.58;101508.88;4993837;28;20027;-56
2023/06/24 10:06:51;;;;;;;5.00;3.08;;;;;;;14.76;72.79;101503.41;4993729;28;20117;-56
2023/06/24 10:09:19;;;;;;;3.13;2.67;;;;;;;14.84;72.90;101513.94;4993770;28;20035;-56
2023/06/24 10:11:47;;;;;;;6.13;3.67;;;;;;;14.73;73.07;101511.94;4993666;28;20108;-56
2023/06/24 10:14:15;;;;;;;4.55;2.60;;;;;;;14.56;72.96;101513.50;4993805;28;20026;-56
2023/06/24 10:16:42;;;;;;;5.15;3.42;;;;;;;14.53;73.25;101517.44;4993724;28;20030;-56
2023/06/24 10:19:08;;;;;;;5.07;3.03;;;;;;;14.78;72.51;101512.94;4993982;28;20022;-56
2023/06/24 10:21:51;;;;;;;3.88;2.88;;;;;;;14.75;72.76;101507.97;4993924;28;20034;-56
2023/06/24 10:24:35;;;;;;;3.67;3.20;;;;;;;14.76;72.46;101511.50;4993651;28;20483;-56
2023/06/24 10:27:06;;;;;;;4.50;3.25;;;;;;;14.78;72.07;101512.13;4993581;28;20125;-56
2023/06/24 10:29:35;;;;;;;3.95;3.47;;;;;;;14.72;72.18;101507.59;4993674;28;20434;-54
2023/06/24 10:32:03;;;;;;;5.47;3.50;;;;;;;14.52;72.76;101507.72;4993541;28;20064;-56
2023/06/24 10:34:33;;;;;;;4.95;3.08;;;;;;;14.79;71.82;101514.59;4993836;28;20022;-56
2023/06/24 10:37:09;;;;;;;5.85;3.10;;;;;;;14.71;71.67;101497.84;4993448;28;20367;-56
2023/06/24 10:39:48;;;;;;;4.57;3.05;;;;;;;14.64;72.25;101502.47;4993547;28;20033;-55
2023/06/24 10:42:41;;;;;;;4.45;3.33;;;;;;;14.47;73.00;101510.22;4994841;28;20046;-55
2023/06/24 10:45:10;;;;;;;5.00;3.17;;;;;;;14.47;73.00;101502.13;4997366;28;20074;-55
2023/06/24 10:47:39;;;;;;;4.18;3.25;;;;;;;14.57;72.41;101507.06;4997671;28;20027;-55
2023/06/24 10:50:06;;;;;;;5.28;3.40;;;;;;;14.53;72.54;101503.97;4997338;28;20086;-57
2023/06/24 10:52:34;;;;;;;5.88;3.15;;;;;;;14.39;73.52;101510.44;4997175;28;20042;-56
2023/06/24 10:55:01;;;;;;;4.45;2.97;;;;;;;14.56;72.55;101506.25;4997202;28;20022;-56
2023/06/24 10:57:28;;;;;;;3.97;3.35;;;;;;;14.43;73.15;101501.69;4997188;28;20038;-56
2023/06/24 10:59:56;;;;;;;4.13;3.22;;;;;;;14.49;72.88;101508.13;4997400;28;20033;-55
2023/06/24 11:02:24;;;;;;;4.50;3.13;;;;;;;14.52;72.58;101508.53;4997143;28;20030;-56
2023/06/24 11:04:56;;;;;;;4.93;3.20;;;;;;;14.53;72.88;101504.78;4997212;28;20030;-55
2023/06/24 11:07:24;;;;;;;7.32;3.47;;;;;;;14.62;72.61;101507.25;4997299;28;20037;-55
2023/06/24 11:09:55;;;;;;;4.30;3.08;;;;;;;14.58;72.46;101506.00;4996977;28;20084;-56
2023/06/24 11:12:31;;;;;;;5.32;3.15;;;;;;;14.58;72.30;101509.53;4996951;28;20054;-56
2023/06/24 11:14:59;;;;;;;4.97;3.03;;;;;;;14.39;73.42;101510.44;4997171;28;20034;-56
2023/06/24 11:17:26;;;;;;;5.03;3.28;;;;;;;14.56;72.91;101506.25;4997020;28;20029;-55
2023/06/24 11:19:57;;;;;;;3.88;2.35;;;;;;;14.58;72.39;101504.16;4996815;28;20037;-56
2023/06/24 11:22:25;;;;;;;3.35;2.63;;;;;;;14.41;72.84;101502.97;4996668;28;20023;-55
2023/06/24 11:24:51;;;;;;;4.90;2.92;;;;;;;14.52;71.71;101505.00;4996944;28;20085;-55
2023/06/24 11:27:25;;;;;;;5.18;2.90;;;;;;;14.50;71.93;101496.34;4996667;28;20129;-56